createdAt,value
2019-01-31T00:00:59.412Z,41.40
2019-01-31T00:04:04.946Z,41.30
2019-01-31T00:07:21.714Z,41.40
2019-01-31T00:10:12.898Z,41.20
2019-01-31T00:13:33.104Z,41.30
2019-01-31T00:16:14.859Z,41.40
2019-01-31T00:19:04.759Z,41.30
2019-01-31T00:21:43.806Z,41.10
2019-01-31T00:24:55.413Z,41.00
2019-01-31T00:27:45.962Z,41.00
2019-01-31T00:30:57.350Z,41.00
2019-01-31T00:33:41.498Z,40.90
2019-01-31T00:36:47.909Z,40.90
2019-01-31T00:39:54.586Z,40.90
2019-01-31T00:42:35.656Z,40.90
2019-01-31T00:45:29.555Z,40.80
2019-01-31T00:48:27.675Z,40.80
2019-01-31T00:51:05.783Z,40.70
2019-01-31T00:54:07.442Z,40.70
2019-01-31T00:57:21.116Z,40.70
2019-01-31T01:00:16.116Z,40.80
2019-01-31T01:03:33.543Z,40.70
2019-01-31T01:06:43.470Z,40.80
2019-01-31T01:09:46.525Z,40.80
2019-01-31T01:12:39.725Z,40.70
2019-01-31T01:15:55.101Z,40.60
2019-01-31T01:18:54.128Z,40.50
2019-01-31T01:21:46.130Z,40.50
2019-01-31T01:24:47.642Z,40.50
2019-01-31T01:27:29.175Z,40.50
2019-01-31T01:30:21.665Z,40.50
2019-01-31T01:33:41.344Z,40.50
2019-01-31T01:36:19.714Z,40.50
2019-01-31T01:39:36.783Z,40.60
2019-01-31T01:42:29.992Z,40.40
2019-01-31T01:45:39.535Z,40.50
2019-01-31T01:48:52.904Z,40.30
2019-01-31T01:51:50.842Z,40.40
2019-01-31T01:54:59.157Z,40.70
2019-01-31T01:58:15.708Z,40.40
2019-01-31T02:01:32.378Z,40.40
2019-01-31T02:04:48.165Z,40.40
2019-01-31T02:07:53.852Z,40.30
2019-01-31T02:10:43.701Z,40.20
2019-01-31T02:13:52.584Z,40.30
2019-01-31T02:16:55.679Z,40.10
2019-01-31T02:20:24.553Z,40.20
2019-01-31T02:23:23.722Z,40.10
2019-01-31T02:26:39.339Z,40.20
2019-01-31T02:29:33.899Z,40.10
2019-01-31T02:32:18.970Z,40.10
2019-01-31T02:35:20.632Z,40.10
2019-01-31T02:38:31.503Z,40.20
2019-01-31T02:41:44.530Z,40.20
2019-01-31T02:44:39.635Z,40.10
2019-01-31T02:47:32.487Z,40.10
2019-01-31T02:50:26.878Z,40.20
2019-01-31T02:53:27.452Z,40.10
2019-01-31T02:56:18.395Z,40.10
2019-01-31T02:59:27.134Z,40.20
2019-01-31T03:02:16.618Z,40.10
2019-01-31T03:05:30.053Z,40.10
2019-01-31T03:08:36.319Z,40.10
2019-01-31T03:11:40.894Z,40.10
2019-01-31T03:14:25.509Z,40.00
2019-01-31T03:17:46.553Z,40.10
2019-01-31T03:20:57.056Z,40.00
2019-01-31T03:24:09.344Z,40.10
2019-01-31T03:27:14.752Z,40.10
2019-01-31T03:30:30.378Z,40.20
2019-01-31T03:33:28.763Z,40.10
2019-01-31T03:36:28.633Z,40.20
2019-01-31T03:39:45.188Z,40.10
2019-01-31T03:42:50.621Z,40.00
2019-01-31T03:45:52.237Z,40.10
2019-01-31T03:48:30.758Z,40.10
2019-01-31T03:51:29.550Z,40.10
2019-01-31T03:54:55.171Z,40.10
2019-01-31T03:57:44.108Z,40.00
2019-01-31T04:00:49.036Z,40.10
2019-01-31T04:03:45.614Z,40.10
2019-01-31T04:06:22.692Z,40.40
2019-01-31T04:08:52.357Z,40.60
2019-01-31T04:11:22.007Z,40.70
2019-01-31T04:13:51.653Z,40.60
2019-01-31T04:16:21.326Z,40.70
2019-01-31T04:18:51.000Z,41.20
2019-01-31T04:21:20.706Z,40.90
2019-01-31T04:23:50.386Z,41.20
2019-01-31T04:26:20.063Z,41.30
2019-01-31T04:28:49.774Z,42.00
2019-01-31T04:31:19.462Z,41.70
2019-01-31T04:33:49.195Z,41.90
2019-01-31T04:36:18.851Z,41.70
2019-01-31T04:38:49.659Z,40.90
2019-01-31T04:41:19.426Z,41.10
2019-01-31T04:43:49.058Z,41.10
2019-01-31T04:46:18.699Z,41.30
2019-01-31T04:48:48.494Z,41.20
2019-01-31T04:51:18.170Z,41.30
2019-01-31T04:53:47.900Z,41.20
2019-01-31T04:56:17.551Z,41.20
2019-01-31T04:58:47.284Z,41.20
2019-01-31T05:01:17.096Z,41.40
2019-01-31T05:03:46.793Z,41.30
2019-01-31T05:06:16.599Z,41.20
2019-01-31T05:08:46.367Z,41.40
2019-01-31T05:11:16.125Z,41.40
2019-01-31T05:13:45.872Z,41.40
2019-01-31T05:16:15.592Z,41.60
2019-01-31T05:18:45.344Z,42.00
2019-01-31T05:21:15.135Z,44.40
2019-01-31T05:23:44.879Z,44.90
2019-01-31T05:26:14.589Z,44.70
2019-01-31T05:28:44.351Z,44.90
2019-01-31T05:31:14.061Z,44.40
2019-01-31T05:33:43.870Z,43.00
2019-01-31T05:36:13.582Z,42.60
2019-01-31T05:38:43.409Z,42.50
2019-01-31T05:41:13.133Z,42.50
2019-01-31T05:43:42.976Z,42.90
2019-01-31T05:46:12.708Z,42.80
2019-01-31T05:48:42.450Z,42.30
2019-01-31T05:51:12.147Z,41.90
2019-01-31T05:53:41.858Z,41.90
2019-01-31T05:56:11.570Z,42.30
2019-01-31T05:58:41.301Z,41.90
2019-01-31T06:01:11.040Z,42.00
2019-01-31T06:03:40.738Z,42.10
2019-01-31T06:06:10.479Z,42.10
2019-01-31T06:08:40.274Z,42.10
2019-01-31T06:11:09.966Z,41.90
2019-01-31T06:13:39.641Z,42.10
2019-01-31T06:16:09.347Z,41.90
2019-01-31T06:18:39.077Z,41.50
2019-01-31T06:21:08.843Z,41.50
2019-01-31T06:23:38.564Z,41.30
2019-01-31T06:26:08.400Z,41.20
2019-01-31T06:28:38.226Z,41.00
2019-01-31T06:31:07.930Z,41.10
2019-01-31T06:33:37.735Z,41.20
2019-01-31T06:36:07.504Z,41.00
2019-01-31T06:38:37.355Z,40.90
2019-01-31T06:41:17.963Z,41.00
2019-01-31T06:43:38.444Z,40.90
2019-01-31T06:46:08.167Z,40.90
2019-01-31T06:48:37.916Z,40.70
2019-01-31T06:51:07.790Z,40.80
2019-01-31T06:53:37.837Z,40.70
2019-01-31T06:56:07.640Z,40.70
2019-01-31T06:58:37.575Z,40.70
2019-01-31T07:01:07.444Z,40.90
2019-01-31T07:03:37.258Z,40.60
2019-01-31T07:06:06.960Z,40.70
2019-01-31T07:08:37.712Z,40.60
2019-01-31T07:11:07.466Z,40.40
2019-01-31T07:13:37.151Z,40.40
2019-01-31T07:16:06.913Z,40.50
2019-01-31T07:18:36.726Z,40.40
2019-01-31T07:21:06.372Z,40.40
2019-01-31T07:23:36.132Z,40.60
2019-01-31T07:26:05.943Z,40.60
2019-01-31T07:28:35.732Z,40.30
2019-01-31T07:31:05.436Z,40.30
2019-01-31T07:33:35.137Z,40.30
2019-01-31T07:36:04.842Z,40.40
2019-01-31T07:38:34.775Z,40.50
2019-01-31T07:41:04.510Z,40.40
2019-01-31T07:43:34.197Z,40.40
2019-01-31T07:46:03.947Z,40.40
2019-01-31T07:48:33.743Z,40.20
2019-01-31T07:51:03.411Z,40.50
2019-01-31T07:53:33.116Z,40.40
2019-01-31T07:56:02.808Z,40.30
2019-01-31T07:58:32.696Z,40.20
2019-01-31T08:01:02.394Z,40.80
2019-01-31T08:03:32.104Z,40.30
2019-01-31T08:06:01.764Z,40.40
2019-01-31T08:08:31.667Z,40.20
2019-01-31T08:11:01.316Z,40.30
2019-01-31T08:13:31.057Z,40.20
2019-01-31T08:16:00.724Z,40.20
2019-01-31T08:18:30.476Z,40.20
2019-01-31T08:21:00.222Z,40.20
2019-01-31T08:23:29.975Z,40.40
2019-01-31T08:25:59.707Z,40.20
2019-01-31T08:28:29.428Z,40.30
2019-01-31T08:30:59.147Z,40.20
2019-01-31T08:33:28.969Z,40.30
2019-01-31T08:35:58.701Z,40.90
2019-01-31T08:38:28.536Z,40.30
2019-01-31T08:40:58.269Z,40.40
2019-01-31T08:43:27.911Z,40.30
2019-01-31T08:45:57.620Z,40.30
2019-01-31T08:48:27.397Z,40.70
2019-01-31T08:50:57.072Z,40.40
2019-01-31T08:53:26.755Z,40.30
2019-01-31T08:55:56.505Z,40.30
2019-01-31T08:58:26.673Z,40.50
2019-01-31T09:00:56.406Z,40.40
2019-01-31T09:03:26.170Z,40.40
2019-01-31T09:05:55.949Z,40.40
2019-01-31T09:08:25.763Z,40.40
2019-01-31T09:10:55.503Z,40.50
2019-01-31T09:13:27.629Z,40.60
2019-01-31T09:15:57.889Z,40.50
2019-01-31T09:18:27.751Z,40.40
2019-01-31T09:21:18.521Z,40.60
2019-01-31T09:24:12.866Z,40.40
2019-01-31T09:27:08.321Z,40.40
2019-01-31T09:30:31.116Z,40.50
2019-01-31T09:33:30.445Z,40.50
2019-01-31T09:36:29.573Z,40.60
2019-01-31T09:39:39.500Z,40.70
2019-01-31T09:43:05.086Z,40.60
2019-01-31T09:46:12.077Z,40.70
2019-01-31T09:48:50.819Z,40.80
2019-01-31T09:51:59.815Z,40.80
2019-01-31T09:55:11.999Z,40.70
2019-01-31T09:58:21.076Z,41.60
2019-01-31T10:01:37.837Z,40.70
2019-01-31T10:04:37.523Z,40.90
2019-01-31T10:07:53.904Z,40.90
2019-01-31T10:10:59.004Z,41.20
2019-01-31T10:14:18.039Z,41.00
2019-01-31T10:17:17.164Z,40.90
2019-01-31T10:20:12.573Z,40.90
2019-01-31T10:23:11.525Z,40.90
2019-01-31T10:26:09.521Z,41.20
2019-01-31T10:29:20.567Z,40.90
2019-01-31T10:32:12.966Z,40.90
2019-01-31T10:35:11.309Z,41.10
2019-01-31T10:38:02.386Z,41.20
2019-01-31T10:41:19.268Z,41.00
2019-01-31T10:44:14.795Z,41.20
2019-01-31T10:47:10.226Z,41.20
2019-01-31T10:50:17.793Z,41.20
2019-01-31T10:53:32.915Z,41.30
2019-01-31T10:56:45.077Z,41.20
2019-01-31T10:59:46.496Z,41.40
2019-01-31T11:02:51.024Z,41.50
2019-01-31T11:06:10.988Z,41.40
2019-01-31T11:09:26.017Z,41.40
2019-01-31T11:12:41.290Z,41.40
2019-01-31T11:15:50.801Z,41.10
2019-01-31T11:18:43.288Z,41.30
2019-01-31T11:22:09.320Z,41.20
2019-01-31T11:24:48.931Z,41.10
2019-01-31T11:27:54.228Z,41.20
2019-01-31T11:30:52.828Z,41.10
2019-01-31T11:34:07.103Z,41.20
2019-01-31T11:37:13.068Z,41.40
2019-01-31T11:39:57.259Z,41.10
2019-01-31T11:42:54.637Z,41.00
2019-01-31T11:46:09.299Z,41.00
2019-01-31T11:49:19.183Z,41.10
2019-01-31T11:52:14.363Z,41.10
2019-01-31T11:55:05.048Z,41.20
2019-01-31T11:58:03.747Z,41.60
2019-01-31T12:00:33.500Z,41.40
2019-01-31T12:03:03.140Z,41.50
2019-01-31T12:05:33.188Z,41.60
2019-01-31T12:08:02.994Z,41.50
2019-01-31T12:10:32.715Z,41.50
2019-01-31T12:13:02.745Z,41.40
2019-01-31T12:15:32.419Z,41.60
2019-01-31T12:18:02.219Z,42.20
2019-01-31T12:20:31.908Z,41.60
2019-01-31T12:23:01.677Z,41.40
2019-01-31T12:25:31.468Z,41.70
2019-01-31T12:28:01.265Z,41.60
2019-01-31T12:30:30.942Z,41.50
2019-01-31T12:33:00.651Z,41.50
2019-01-31T12:35:30.343Z,41.60
2019-01-31T12:38:00.051Z,41.60
2019-01-31T12:40:29.779Z,41.70
2019-01-31T12:42:59.477Z,41.80
2019-01-31T12:45:29.267Z,41.80
2019-01-31T12:47:58.964Z,41.90
2019-01-31T12:50:29.711Z,41.60
2019-01-31T12:52:59.480Z,41.60
2019-01-31T12:55:29.544Z,41.80
2019-01-31T12:57:59.184Z,41.80
2019-01-31T13:00:30.317Z,41.80
2019-01-31T13:02:59.975Z,41.80
2019-01-31T13:05:29.732Z,41.70
2019-01-31T13:07:59.461Z,41.60
2019-01-31T13:10:29.220Z,41.70
2019-01-31T13:12:58.942Z,41.60
2019-01-31T13:15:29.470Z,42.00
2019-01-31T13:17:59.233Z,41.80
2019-01-31T13:20:28.997Z,42.30
2019-01-31T13:22:59.097Z,41.60
2019-01-31T13:25:29.361Z,41.80
2019-01-31T13:27:59.122Z,41.70
2019-01-31T13:30:29.401Z,41.60
2019-01-31T13:32:59.099Z,41.70
2019-01-31T13:35:28.807Z,41.90
2019-01-31T13:37:58.593Z,41.90
2019-01-31T13:40:29.319Z,41.80
2019-01-31T13:42:59.166Z,41.80
2019-01-31T13:45:34.108Z,41.80
2019-01-31T13:48:09.329Z,42.10
2019-01-31T13:50:39.073Z,41.90
2019-01-31T13:53:09.670Z,42.10
2019-01-31T13:55:39.376Z,41.70
2019-01-31T13:58:10.239Z,42.30
2019-01-31T14:00:40.291Z,41.90
2019-01-31T14:03:10.184Z,41.70
2019-01-31T14:05:39.924Z,41.70
2019-01-31T14:08:09.693Z,41.60
2019-01-31T14:10:39.360Z,41.70
2019-01-31T14:13:11.935Z,41.70
2019-01-31T14:15:41.652Z,41.80
2019-01-31T14:18:11.479Z,41.60
2019-01-31T14:20:41.256Z,41.60
2019-01-31T14:23:11.126Z,42.30
2019-01-31T14:25:40.861Z,41.70
2019-01-31T14:28:10.706Z,41.80
2019-01-31T14:30:59.718Z,41.80
2019-01-31T14:33:29.482Z,41.80
2019-01-31T14:36:00.722Z,41.90
2019-01-31T14:38:30.459Z,42.00
2019-01-31T14:41:00.218Z,41.70
2019-01-31T14:43:29.879Z,42.00
2019-01-31T14:46:00.433Z,41.70
2019-01-31T14:48:30.208Z,41.70
2019-01-31T14:50:59.996Z,42.00
2019-01-31T14:53:29.796Z,41.90
2019-01-31T14:55:59.501Z,41.70
2019-01-31T14:58:29.267Z,41.80
2019-01-31T15:00:58.902Z,42.10
2019-01-31T15:03:28.720Z,42.00
2019-01-31T15:05:58.492Z,41.90
2019-01-31T15:08:28.297Z,42.00
2019-01-31T15:10:58.009Z,42.20
2019-01-31T15:13:27.648Z,42.20
2019-01-31T15:15:57.332Z,42.20
2019-01-31T15:18:27.152Z,42.10
2019-01-31T15:20:56.857Z,42.50
2019-01-31T15:23:26.604Z,42.50
2019-01-31T15:25:56.327Z,42.80
2019-01-31T15:28:26.070Z,42.50
2019-01-31T15:30:55.782Z,42.80
2019-01-31T15:33:25.628Z,42.70
2019-01-31T15:35:55.548Z,42.60
2019-01-31T15:38:26.343Z,42.70
2019-01-31T15:40:56.169Z,42.50
2019-01-31T15:43:25.864Z,42.60
2019-01-31T15:45:55.602Z,42.70
2019-01-31T15:48:25.331Z,42.30
2019-01-31T15:50:55.041Z,42.60
2019-01-31T15:53:24.802Z,42.80
2019-01-31T15:55:54.571Z,42.70
2019-01-31T15:58:24.477Z,42.60
2019-01-31T16:00:55.975Z,42.50
2019-01-31T16:03:26.812Z,42.40
2019-01-31T16:05:56.622Z,42.60
2019-01-31T16:08:26.385Z,42.60
2019-01-31T16:10:56.100Z,43.70
2019-01-31T16:13:25.982Z,43.60
2019-01-31T16:15:55.724Z,43.90
2019-01-31T16:18:25.468Z,43.30
2019-01-31T16:20:55.139Z,43.20
2019-01-31T16:23:24.898Z,43.10
2019-01-31T16:25:54.612Z,43.60
2019-01-31T16:28:24.293Z,44.30
2019-01-31T16:30:54.029Z,44.00
2019-01-31T16:33:23.771Z,43.00
2019-01-31T16:35:53.965Z,42.80
2019-01-31T16:38:24.149Z,42.70
2019-01-31T16:40:53.947Z,42.60
2019-01-31T16:43:23.675Z,43.50
2019-01-31T16:45:53.314Z,43.00
2019-01-31T16:48:23.408Z,43.10
2019-01-31T16:50:53.212Z,43.10
2019-01-31T16:53:23.973Z,43.30
2019-01-31T16:55:55.198Z,43.30
2019-01-31T16:58:30.526Z,43.40
2019-01-31T17:01:01.738Z,43.40
2019-01-31T17:03:32.563Z,43.60
2019-01-31T17:06:02.452Z,43.70
2019-01-31T17:08:32.456Z,43.80
2019-01-31T17:11:08.074Z,43.90
2019-01-31T17:13:37.768Z,43.80
2019-01-31T17:16:08.151Z,43.90
2019-01-31T17:18:37.890Z,43.90
2019-01-31T17:21:07.615Z,44.10
2019-01-31T17:23:37.805Z,44.30
2019-01-31T17:26:08.186Z,44.50
2019-01-31T17:28:38.838Z,44.50
2019-01-31T17:31:09.276Z,44.80
2019-01-31T17:33:39.853Z,45.10
2019-01-31T17:36:10.624Z,45.10
2019-01-31T17:38:43.036Z,45.20
2019-01-31T17:41:13.457Z,45.70
2019-01-31T17:43:43.888Z,45.30
2019-01-31T17:46:14.321Z,45.20
2019-01-31T17:48:44.856Z,45.30
2019-01-31T17:51:17.006Z,45.30
2019-01-31T17:53:48.416Z,45.30
2019-01-31T17:56:18.968Z,45.30
2019-01-31T17:58:49.888Z,45.10
2019-01-31T18:01:20.691Z,45.00
2019-01-31T18:03:51.427Z,45.00
2019-01-31T18:06:22.252Z,45.00
2019-01-31T18:08:53.175Z,45.00
2019-01-31T18:11:23.767Z,45.10
2019-01-31T18:13:55.459Z,45.10
2019-01-31T18:16:26.579Z,45.10
2019-01-31T18:18:58.054Z,45.10
2019-01-31T18:21:29.135Z,45.30
2019-01-31T18:24:01.083Z,45.00
2019-01-31T18:26:32.375Z,44.80
2019-01-31T18:29:02.472Z,44.70
2019-01-31T18:31:32.383Z,44.50
2019-01-31T18:34:02.162Z,44.40
2019-01-31T18:36:32.013Z,44.20
2019-01-31T18:39:01.740Z,44.00
2019-01-31T18:41:31.461Z,44.10
2019-01-31T18:44:01.960Z,44.00
2019-01-31T18:46:32.537Z,44.20
2019-01-31T18:49:02.952Z,44.60
2019-01-31T18:51:32.711Z,45.10
2019-01-31T18:54:02.446Z,45.20
2019-01-31T18:56:32.177Z,46.00
2019-01-31T18:59:01.995Z,45.60
2019-01-31T19:01:31.725Z,46.40
2019-01-31T19:04:01.472Z,47.10
2019-01-31T19:06:31.140Z,46.70
2019-01-31T19:09:00.914Z,47.30
2019-01-31T19:11:30.633Z,46.90
2019-01-31T19:14:00.320Z,47.00
2019-01-31T19:16:30.060Z,47.40
2019-01-31T19:18:59.803Z,47.10
2019-01-31T19:21:29.503Z,47.10
2019-01-31T19:23:59.246Z,47.10
2019-01-31T19:26:29.026Z,46.90
2019-01-31T19:28:58.745Z,46.90
2019-01-31T19:31:28.398Z,47.00
2019-01-31T19:33:58.597Z,46.90
2019-01-31T19:36:30.948Z,46.90
2019-01-31T19:38:59.932Z,46.60
2019-01-31T19:41:29.724Z,46.50
2019-01-31T19:43:59.459Z,46.50
2019-01-31T19:46:29.164Z,46.30
2019-01-31T19:48:58.876Z,46.00
2019-01-31T19:51:28.619Z,46.00
2019-01-31T19:53:58.620Z,46.00
2019-01-31T19:56:28.279Z,46.00
2019-01-31T19:59:06.625Z,46.00
2019-01-31T20:01:35.247Z,46.20
2019-01-31T20:04:05.046Z,46.50
2019-01-31T20:06:34.759Z,46.80
2019-01-31T20:09:07.426Z,47.10
2019-01-31T20:11:37.138Z,47.70
2019-01-31T20:14:06.850Z,47.60
2019-01-31T20:16:36.542Z,47.70
2019-01-31T20:19:06.397Z,47.80
2019-01-31T20:21:36.064Z,47.90
2019-01-31T20:24:05.798Z,48.10
2019-01-31T20:26:35.587Z,48.10
2019-01-31T20:29:05.395Z,48.00
2019-01-31T20:31:35.144Z,48.00
2019-01-31T20:34:05.029Z,48.00
2019-01-31T20:36:34.919Z,48.00
2019-01-31T20:39:07.987Z,48.00
2019-01-31T20:41:37.707Z,47.70
2019-01-31T20:44:07.409Z,47.70
2019-01-31T20:46:40.076Z,47.70
2019-01-31T20:49:08.640Z,47.70
2019-01-31T20:51:39.500Z,47.70
2019-01-31T20:54:09.242Z,47.60
2019-01-31T20:56:38.941Z,47.40
2019-01-31T20:59:08.821Z,47.40
2019-01-31T21:01:38.452Z,47.40
2019-01-31T21:04:08.151Z,47.30
2019-01-31T21:06:41.506Z,47.10
2019-01-31T21:09:09.297Z,47.30
2019-01-31T21:11:38.964Z,47.00
2019-01-31T21:14:08.704Z,46.90
2019-01-31T21:16:38.352Z,46.70
2019-01-31T21:19:08.093Z,46.90
2019-01-31T21:21:37.737Z,46.60
2019-01-31T21:24:07.392Z,46.50
2019-01-31T21:26:37.021Z,46.40
2019-01-31T21:29:25.823Z,46.30
2019-01-31T21:31:55.551Z,46.30
2019-01-31T21:34:25.572Z,46.30
2019-01-31T21:36:55.215Z,46.10
2019-01-31T21:39:25.035Z,46.10
2019-01-31T21:41:54.698Z,46.00
2019-01-31T21:44:24.342Z,46.00
2019-01-31T21:47:02.809Z,45.90
2019-01-31T21:49:25.381Z,45.80
2019-01-31T21:51:55.039Z,45.80
2019-01-31T21:54:24.719Z,45.70
2019-01-31T21:56:54.364Z,45.70
2019-01-31T21:59:24.106Z,45.60
2019-01-31T22:01:53.748Z,45.80
2019-01-31T22:04:42.534Z,45.50
2019-01-31T22:07:12.224Z,45.50
2019-01-31T22:09:42.948Z,45.80
2019-01-31T22:12:12.637Z,45.40
2019-01-31T22:14:42.301Z,45.40
2019-01-31T22:17:14.819Z,45.40
2019-01-31T22:19:43.300Z,45.40
2019-01-31T22:22:12.964Z,45.40
2019-01-31T22:24:42.640Z,45.30
2019-01-31T22:27:12.286Z,45.40
2019-01-31T22:29:42.034Z,45.40
2019-01-31T22:32:11.700Z,45.40
2019-01-31T22:34:41.435Z,45.30
2019-01-31T22:37:11.804Z,45.40
2019-01-31T22:39:41.496Z,45.30
2019-01-31T22:42:11.161Z,45.30
2019-01-31T22:44:40.881Z,45.40
2019-01-31T22:47:10.542Z,45.60
2019-01-31T22:49:40.203Z,46.10
2019-01-31T22:52:09.863Z,45.50
2019-01-31T22:54:39.573Z,45.80
2019-01-31T22:57:09.236Z,45.70
2019-01-31T22:59:38.956Z,45.70
2019-01-31T23:02:12.393Z,46.30
2019-01-31T23:04:42.060Z,45.90
2019-01-31T23:07:12.230Z,45.90
2019-01-31T23:09:42.165Z,46.00
2019-01-31T23:12:11.840Z,46.00
2019-01-31T23:14:41.549Z,46.30
2019-01-31T23:17:11.325Z,46.10
2019-01-31T23:19:41.039Z,45.90
2019-01-31T23:22:11.006Z,46.00
2019-01-31T23:24:40.676Z,46.10
2019-01-31T23:27:10.340Z,46.20
2019-01-31T23:29:40.072Z,46.40
2019-01-31T23:32:09.725Z,46.10
2019-01-31T23:34:39.558Z,46.30
2019-01-31T23:37:09.211Z,46.30
2019-01-31T23:39:38.925Z,45.80
2019-01-31T23:42:08.977Z,46.40
2019-01-31T23:44:38.619Z,46.60
2019-01-31T23:47:08.293Z,46.40
2019-01-31T23:49:37.956Z,46.50
2019-01-31T23:52:07.609Z,46.30
2019-01-31T23:54:56.324Z,46.70
2019-01-31T23:57:26.077Z,46.80
2019-01-31T23:59:55.764Z,47.00
